Aérodrome :
LOGIN :

S'inscrire | Disclaimer

   EN    FR    IT 

 










Légende :    VFR   VFR Marginal   IFR   IFR Intensif   IFR Très Intensif
Visi : 
Plafond : 
>= 8 km
>= 3000ft
5 à 8 km
1000 à 3000 ft
1500m à 5 km
500 à 1000 ft
800 à 1500m
200 à 500 ft
< 800m
< 200 ft
Symboles :   Orages  Brouillard  Fortes neiges  Fortes précipitations  Vent > 20 kt
SIGMETs :   Divers  Orages  Givrage  Turbulence  Onde Orograph.  Cendres Volcan.







- Altitude de l'aérodrome : 587 ft
- Code IATA : XCR
- Voir les cartes d'approche


LFOK - Chalons Vatry

DERNIER METAR :
  • 281700Z AUTO 24009KT CAVOK 15/09 Q1024 TEMPO 4000 SHRA BKN030TCU

METARs EXPIRÉS :
  • 281630Z AUTO 25011KT 9999 ///CB 15/09 Q1024 TEMPO 4000 SHRA BECMG SCT040
  • 281600Z AUTO 27014KT 9999 -RA FEW037/// SCT048/// BKN066/// ///CB 13/08 Q1024 TEMPO 4000 SHRA
  • 281530Z AUTO 23011KT 9999 VCTS SCT046/// SCT064/// BKN086/// ///CB 16/08 Q1024 TEMPO 4000 SHRA
  • 281500Z AUTO 23013KT 200V260 9999 FEW001 18/09 Q1024 TEMPO 4000 SHRA BKN030TCU
  • 281430Z AUTO 23012KT 9999 FEW008 18/08 Q1024 TEMPO 4000 SHRA BKN030TCU

TAF AMD TAF LFOK
Valide du 28 à 15h jusqu'au 29 à 12h UTC


281537Z 2815/2912 23008KT 9999 SCT040
TEMPO 2815/2818 4000 SHRA BKN030TCU
PROB40
TEMPO 2815/2817 2000 TSRA BKN030CB
BECMG 2900/2903 3000 BR
PROB30 2903/2907 0500 FG VV///
BECMG 2907/2910 9999 NSW
Pas de NOTAMs connus pour ce terrain.



MET'MAP, la Météo Aéronautique d'un coup d'oeil ! - Copyright ORBIFLY Décembre 2007 - Disclaimer

ORBIFLY MET'MAP TEAM :

Programmation & Développement : Alexandra Zaïnal
Conception & Développement : Baudouin d'Aumeries
Co-Programmation & Développement : Marc-Olivier Méhu
Soutien technique & logistique : Manuel Goepfert

Contact : metmap@orbifly.com




SOURCES & CREDITS :

   NOAA